createdAt,value
2018-03-31T00:00:35.991Z,98.62
2018-03-31T00:03:04.153Z,98.67
2018-03-31T00:05:32.362Z,98.13
2018-03-31T00:08:00.510Z,98.29
2018-03-31T00:10:28.741Z,98.65
2018-03-31T00:12:57.040Z,98.79
2018-03-31T00:15:25.312Z,98.28
2018-03-31T00:17:53.495Z,97.68
2018-03-31T00:20:22.718Z,97.90
2018-03-31T00:22:51.834Z,97.56
2018-03-31T00:25:20.054Z,97.34
2018-03-31T00:27:48.239Z,97.74
2018-03-31T00:30:16.423Z,97.87
2018-03-31T00:32:44.609Z,98.52
2018-03-31T00:35:12.578Z,98.71
2018-03-31T00:37:40.756Z,98.74
2018-03-31T00:40:08.897Z,98.82
2018-03-31T00:42:37.082Z,98.84
2018-03-31T00:45:05.484Z,98.71
2018-03-31T00:47:33.739Z,98.74
2018-03-31T00:50:01.902Z,98.64
2018-03-31T00:52:30.113Z,98.64
2018-03-31T00:54:58.257Z,96.78
2018-03-31T00:57:26.439Z,93.82
2018-03-31T00:59:54.613Z,92.58
2018-03-31T01:02:22.917Z,92.70
2018-03-31T01:04:51.189Z,92.33
2018-03-31T01:07:19.337Z,92.33
2018-03-31T01:09:47.510Z,92.81
2018-03-31T01:12:15.727Z,92.28
2018-03-31T01:14:43.953Z,91.62
2018-03-31T01:17:12.167Z,92.26
2018-03-31T01:19:40.514Z,92.89
2018-03-31T01:22:08.690Z,92.52
2018-03-31T01:24:37.102Z,92.69
2018-03-31T01:27:05.674Z,93.15
2018-03-31T01:29:33.935Z,93.34
2018-03-31T01:32:02.135Z,93.81
2018-03-31T01:34:30.401Z,94.10
2018-03-31T01:36:58.552Z,94.57
2018-03-31T01:39:26.724Z,94.29
2018-03-31T01:41:54.997Z,94.74
2018-03-31T01:44:23.209Z,95.21
2018-03-31T01:46:51.345Z,95.45
2018-03-31T01:49:19.546Z,95.86
2018-03-31T01:51:47.950Z,96.55
2018-03-31T01:54:16.259Z,96.84
2018-03-31T01:56:44.465Z,96.87
2018-03-31T01:59:12.665Z,96.77
2018-03-31T02:01:40.949Z,96.63
2018-03-31T02:04:09.099Z,96.81
2018-03-31T02:06:37.514Z,96.98
2018-03-31T02:09:05.749Z,97.07
2018-03-31T02:11:33.957Z,96.87
2018-03-31T02:14:02.330Z,96.80
2018-03-31T02:16:30.617Z,96.54
2018-03-31T02:18:58.921Z,96.99
2018-03-31T02:21:27.131Z,97.53
2018-03-31T02:23:55.339Z,97.21
2018-03-31T02:26:23.484Z,96.95
2018-03-31T02:28:51.851Z,96.77
2018-03-31T02:31:20.837Z,96.76
2018-03-31T02:33:49.262Z,96.62
2018-03-31T02:36:17.651Z,96.43
2018-03-31T02:38:45.934Z,95.52
2018-03-31T02:41:14.153Z,95.76
2018-03-31T02:43:42.368Z,95.50
2018-03-31T02:46:10.609Z,95.88
2018-03-31T02:48:38.755Z,95.85
2018-03-31T02:51:07.000Z,96.10
2018-03-31T02:53:35.373Z,96.09
2018-03-31T02:56:03.767Z,96.06
2018-03-31T02:58:31.990Z,96.28
2018-03-31T03:01:00.174Z,96.17
2018-03-31T03:03:28.174Z,95.76
2018-03-31T03:05:56.146Z,95.83
2018-03-31T03:08:24.279Z,95.46
2018-03-31T03:10:52.515Z,95.59
2018-03-31T03:13:20.653Z,95.75
2018-03-31T03:15:48.299Z,95.90
2018-03-31T03:18:15.999Z,95.94
2018-03-31T03:20:43.659Z,95.74
2018-03-31T03:23:11.338Z,95.82
2018-03-31T03:25:39.021Z,95.86
2018-03-31T03:28:06.740Z,95.75
2018-03-31T03:30:34.396Z,95.69
2018-03-31T03:33:02.053Z,95.94
2018-03-31T03:35:29.823Z,95.15
2018-03-31T03:37:57.487Z,95.58
2018-03-31T03:40:25.137Z,95.13
2018-03-31T03:42:52.825Z,95.36
2018-03-31T03:45:20.471Z,95.62
2018-03-31T03:47:48.110Z,95.64
2018-03-31T03:50:15.806Z,95.36
2018-03-31T03:52:43.473Z,95.25
2018-03-31T03:55:11.123Z,95.69
2018-03-31T03:57:38.895Z,95.76
2018-03-31T04:00:06.661Z,95.58
2018-03-31T04:02:34.371Z,95.73
2018-03-31T04:05:02.084Z,95.87
2018-03-31T04:07:29.909Z,96.16
2018-03-31T04:09:57.567Z,96.06
2018-03-31T04:12:25.261Z,96.28
2018-03-31T04:14:52.940Z,96.36
2018-03-31T04:17:20.681Z,96.53
2018-03-31T04:19:48.325Z,96.57
2018-03-31T04:22:15.979Z,96.54
2018-03-31T04:24:43.818Z,96.79
2018-03-31T04:27:11.665Z,96.75
2018-03-31T04:29:39.309Z,96.61
2018-03-31T04:32:07.093Z,96.60
2018-03-31T04:34:34.734Z,95.80
2018-03-31T04:37:02.423Z,95.67
2018-03-31T04:39:30.349Z,95.50
2018-03-31T04:41:58.026Z,95.65
2018-03-31T04:44:25.712Z,95.43
2018-03-31T04:46:53.370Z,94.85
2018-03-31T04:49:21.129Z,94.48
2018-03-31T04:51:48.836Z,94.04
2018-03-31T04:54:16.554Z,93.59
2018-03-31T04:56:44.231Z,93.40
2018-03-31T04:59:12.657Z,93.19
2018-03-31T05:01:40.444Z,91.54
2018-03-31T05:04:08.374Z,91.11
2018-03-31T05:06:36.079Z,89.95
2018-03-31T05:09:04.482Z,90.41
2018-03-31T05:11:32.145Z,89.40
2018-03-31T05:13:59.890Z,90.13
2018-03-31T05:16:27.571Z,89.54
2018-03-31T05:18:55.290Z,88.12
2018-03-31T05:21:22.965Z,86.39
2018-03-31T05:23:50.751Z,86.43
2018-03-31T05:26:18.393Z,86.43
2018-03-31T05:28:46.089Z,86.43
2018-03-31T05:31:13.752Z,85.15
2018-03-31T05:33:41.405Z,84.77
2018-03-31T05:36:09.063Z,82.70
2018-03-31T05:38:37.490Z,83.53
2018-03-31T05:41:05.162Z,81.54
2018-03-31T05:43:32.830Z,78.82
2018-03-31T05:46:00.525Z,78.71
2018-03-31T05:48:28.178Z,80.11
2018-03-31T05:50:55.827Z,79.68
2018-03-31T05:53:23.734Z,81.36
2018-03-31T05:55:52.037Z,82.39
2018-03-31T05:58:19.677Z,81.06
2018-03-31T06:00:47.369Z,81.56
2018-03-31T06:03:15.105Z,80.96
2018-03-31T06:05:42.887Z,80.65
2018-03-31T06:08:10.534Z,80.04
2018-03-31T06:10:38.185Z,80.22
2018-03-31T06:13:06.066Z,81.50
2018-03-31T06:15:33.720Z,80.74
2018-03-31T06:18:01.676Z,80.88
2018-03-31T06:20:29.974Z,79.85
2018-03-31T06:22:57.740Z,80.19
2018-03-31T06:25:25.391Z,79.76
2018-03-31T06:27:53.055Z,80.03
2018-03-31T06:30:20.739Z,79.56
2018-03-31T06:32:48.434Z,79.74
2018-03-31T06:35:16.075Z,78.13
2018-03-31T06:37:43.828Z,78.21
2018-03-31T06:40:11.509Z,78.60
2018-03-31T06:42:39.244Z,77.72
2018-03-31T06:45:07.001Z,78.38
2018-03-31T06:47:34.699Z,76.85
2018-03-31T06:50:02.378Z,79.43
2018-03-31T06:52:30.047Z,78.71
2018-03-31T06:54:57.687Z,79.34
2018-03-31T06:57:25.322Z,78.51
2018-03-31T06:59:53.088Z,77.93
2018-03-31T07:02:21.382Z,77.10
2018-03-31T07:04:49.035Z,76.73
2018-03-31T07:07:16.840Z,76.37
2018-03-31T07:09:44.517Z,77.90
2018-03-31T07:12:12.169Z,77.26
2018-03-31T07:14:39.867Z,76.30
2018-03-31T07:17:08.205Z,76.96
2018-03-31T07:19:36.682Z,77.47
2018-03-31T07:22:04.491Z,76.55
2018-03-31T07:24:32.168Z,76.80
2018-03-31T07:26:59.939Z,75.64
2018-03-31T07:29:27.601Z,75.19
2018-03-31T07:31:55.251Z,74.63
2018-03-31T07:34:22.890Z,75.23
2018-03-31T07:36:51.261Z,73.81
2018-03-31T07:39:18.963Z,72.66
2018-03-31T07:41:46.624Z,73.11
2018-03-31T07:44:14.306Z,72.80
2018-03-31T07:46:42.058Z,71.31
2018-03-31T07:49:09.713Z,70.51
2018-03-31T07:51:37.474Z,71.50
2018-03-31T07:54:05.171Z,73.87
2018-03-31T07:56:32.872Z,71.25
2018-03-31T07:59:00.518Z,69.80
2018-03-31T08:01:28.332Z,71.19
2018-03-31T08:03:55.995Z,68.00
2018-03-31T08:06:23.629Z,69.89
2018-03-31T08:08:51.307Z,66.92
2018-03-31T08:11:19.065Z,67.54
2018-03-31T08:13:46.763Z,67.28
2018-03-31T08:16:14.462Z,66.98
2018-03-31T08:18:42.187Z,68.06
2018-03-31T08:21:09.974Z,68.15
2018-03-31T08:23:37.654Z,67.19
2018-03-31T08:26:06.094Z,67.47
2018-03-31T08:28:33.744Z,67.64
2018-03-31T08:31:01.423Z,67.75
2018-03-31T08:33:29.106Z,66.52
2018-03-31T08:35:56.755Z,66.06
2018-03-31T08:38:24.406Z,64.89
2018-03-31T08:40:52.059Z,63.03
2018-03-31T08:43:19.797Z,62.98
2018-03-31T08:45:47.488Z,65.59
2018-03-31T08:48:15.148Z,61.95
2018-03-31T08:50:42.855Z,62.31
2018-03-31T08:53:10.585Z,61.53
2018-03-31T08:55:39.157Z,61.34
2018-03-31T08:58:06.831Z,60.20
2018-03-31T09:00:34.595Z,59.81
2018-03-31T09:03:02.365Z,57.58
2018-03-31T09:05:30.019Z,60.57
2018-03-31T09:07:57.661Z,60.50
2018-03-31T09:10:25.458Z,56.22
2018-03-31T09:12:53.218Z,55.70
2018-03-31T09:15:20.986Z,57.41
2018-03-31T09:17:48.788Z,58.18
2018-03-31T09:20:16.435Z,57.07
2018-03-31T09:22:45.783Z,58.00
2018-03-31T09:25:11.946Z,55.12
2018-03-31T09:27:39.699Z,57.62
2018-03-31T09:30:07.387Z,58.78
2018-03-31T09:32:35.125Z,58.78
2018-03-31T09:35:02.786Z,58.61
2018-03-31T09:37:30.430Z,60.18
2018-03-31T09:39:58.148Z,56.63
2018-03-31T09:42:25.810Z,56.96
2018-03-31T09:44:53.552Z,56.81
2018-03-31T09:47:21.204Z,55.84
2018-03-31T09:49:48.868Z,55.48
2018-03-31T09:52:16.642Z,54.83
2018-03-31T09:54:44.350Z,55.46
2018-03-31T09:57:12.019Z,56.44
2018-03-31T09:59:39.730Z,57.02
2018-03-31T10:02:07.417Z,57.04
2018-03-31T10:04:35.159Z,58.15
2018-03-31T10:07:02.931Z,59.22
2018-03-31T10:09:30.626Z,58.92
2018-03-31T10:11:58.310Z,59.08
2018-03-31T10:14:25.953Z,56.10
2018-03-31T10:16:54.296Z,53.98
2018-03-31T10:19:21.953Z,54.60
2018-03-31T10:21:49.867Z,54.75
2018-03-31T10:24:17.586Z,53.89
2018-03-31T10:26:45.550Z,53.62
2018-03-31T10:29:13.203Z,53.93
2018-03-31T10:31:40.984Z,52.20
2018-03-31T10:34:08.730Z,59.60
2018-03-31T10:36:36.415Z,55.95
2018-03-31T10:39:04.107Z,54.83
2018-03-31T10:41:31.754Z,53.42
2018-03-31T10:43:59.506Z,50.21
2018-03-31T10:46:27.185Z,48.27
2018-03-31T10:48:54.934Z,52.32
2018-03-31T10:51:22.578Z,52.42
2018-03-31T10:53:50.285Z,49.73
2018-03-31T10:56:17.973Z,49.37
2018-03-31T10:58:45.627Z,51.02
2018-03-31T11:01:13.313Z,50.41
2018-03-31T11:03:40.955Z,46.88
2018-03-31T11:06:08.625Z,47.50
2018-03-31T11:08:36.277Z,48.44
2018-03-31T11:11:03.927Z,48.15
2018-03-31T11:13:31.689Z,50.31
2018-03-31T11:15:59.335Z,47.79
2018-03-31T11:18:26.979Z,51.85
2018-03-31T11:20:54.657Z,52.25
2018-03-31T11:23:22.923Z,47.87
2018-03-31T11:25:50.803Z,45.24
2018-03-31T11:28:18.441Z,47.49
2018-03-31T11:30:46.094Z,47.13
2018-03-31T11:33:13.743Z,48.55
2018-03-31T11:35:41.448Z,45.28
2018-03-31T11:38:09.125Z,43.00
2018-03-31T11:40:36.880Z,45.30
2018-03-31T11:43:04.533Z,44.97
2018-03-31T11:45:32.246Z,43.81
2018-03-31T11:47:59.915Z,48.43
2018-03-31T11:50:27.567Z,48.81
2018-03-31T11:52:55.267Z,48.14
2018-03-31T11:55:23.181Z,46.51
2018-03-31T11:57:51.385Z,45.10
2018-03-31T12:00:19.129Z,43.04
2018-03-31T12:02:46.789Z,43.73
2018-03-31T12:05:14.433Z,46.88
2018-03-31T12:07:42.190Z,47.08
2018-03-31T12:10:09.867Z,46.20
2018-03-31T12:12:37.567Z,47.12
2018-03-31T12:15:05.260Z,44.08
2018-03-31T12:17:32.924Z,43.16
2018-03-31T12:20:00.761Z,41.31
2018-03-31T12:22:28.422Z,43.03
2018-03-31T12:24:56.072Z,45.83
2018-03-31T12:27:23.809Z,47.99
2018-03-31T12:29:51.685Z,48.54
2018-03-31T12:32:19.409Z,46.85
2018-03-31T12:34:47.092Z,46.96
2018-03-31T12:37:14.735Z,47.17
2018-03-31T12:39:42.422Z,46.28
2018-03-31T12:42:10.094Z,47.15
2018-03-31T12:44:37.749Z,47.38
2018-03-31T12:47:05.381Z,44.44
2018-03-31T12:49:33.017Z,45.96
2018-03-31T12:52:00.731Z,45.49
2018-03-31T12:54:28.461Z,47.65
2018-03-31T12:56:56.110Z,46.98
2018-03-31T12:59:23.801Z,45.28
2018-03-31T13:01:51.437Z,45.96
2018-03-31T13:04:19.158Z,43.16
2018-03-31T13:06:46.837Z,41.87
2018-03-31T13:09:14.482Z,43.36
2018-03-31T13:11:42.226Z,42.52
2018-03-31T13:14:09.992Z,43.79
2018-03-31T13:16:37.677Z,44.04
2018-03-31T13:19:05.427Z,42.79
2018-03-31T13:21:33.123Z,44.45
2018-03-31T13:24:01.036Z,45.46
2018-03-31T13:26:28.698Z,46.47
2018-03-31T13:28:56.381Z,44.89
2018-03-31T13:31:24.046Z,45.01
2018-03-31T13:33:51.691Z,41.78
2018-03-31T13:36:19.466Z,42.41
2018-03-31T13:38:47.181Z,44.61
2018-03-31T13:41:14.826Z,45.33
2018-03-31T13:43:42.477Z,42.56
2018-03-31T13:46:10.175Z,42.48
2018-03-31T13:48:37.842Z,42.12
2018-03-31T13:51:05.473Z,41.56
2018-03-31T13:53:33.311Z,40.06
2018-03-31T13:56:00.957Z,39.67
2018-03-31T13:58:28.738Z,42.91
2018-03-31T14:00:56.454Z,43.45
2018-03-31T14:03:24.175Z,42.65
2018-03-31T14:05:51.918Z,43.33
2018-03-31T14:08:19.698Z,41.33
2018-03-31T14:10:47.350Z,43.85
2018-03-31T14:13:15.041Z,42.88
2018-03-31T14:15:42.794Z,42.97
2018-03-31T14:18:10.433Z,41.03
2018-03-31T14:20:38.307Z,43.89
2018-03-31T14:23:05.982Z,44.52
2018-03-31T14:25:33.745Z,44.99
2018-03-31T14:28:01.381Z,44.08
2018-03-31T14:30:29.082Z,42.98
2018-03-31T14:32:56.740Z,44.05
2018-03-31T14:35:24.413Z,42.33
2018-03-31T14:37:52.141Z,42.25
2018-03-31T14:40:19.814Z,42.53
2018-03-31T14:42:47.492Z,43.37
2018-03-31T14:45:15.345Z,44.48
2018-03-31T14:47:43.030Z,45.27
2018-03-31T14:50:10.680Z,46.09
2018-03-31T14:52:38.364Z,46.98
2018-03-31T14:55:06.011Z,47.42
2018-03-31T14:57:33.778Z,47.47
2018-03-31T15:00:01.449Z,47.18
2018-03-31T15:02:29.104Z,46.73
2018-03-31T15:04:56.976Z,45.58
2018-03-31T15:07:24.654Z,44.81
2018-03-31T15:09:53.793Z,44.54
2018-03-31T15:12:21.485Z,43.01
2018-03-31T15:14:49.159Z,42.06
2018-03-31T15:17:16.822Z,39.94
2018-03-31T15:19:44.591Z,40.23
2018-03-31T15:22:12.458Z,37.96
2018-03-31T15:24:40.267Z,39.96
2018-03-31T15:27:07.913Z,39.29
2018-03-31T15:29:35.698Z,39.65
2018-03-31T15:32:03.387Z,39.35
2018-03-31T15:34:31.035Z,40.25
2018-03-31T15:36:59.730Z,40.54
2018-03-31T15:39:27.443Z,41.66
2018-03-31T15:41:55.176Z,40.36
2018-03-31T15:44:22.818Z,41.10
2018-03-31T15:46:50.604Z,43.48
2018-03-31T15:49:18.233Z,45.30
2018-03-31T15:51:45.918Z,48.28
2018-03-31T15:54:13.699Z,50.58
2018-03-31T15:56:41.334Z,53.27
2018-03-31T15:59:09.026Z,55.26
2018-03-31T16:01:37.304Z,55.67
2018-03-31T16:04:04.947Z,55.61
2018-03-31T16:06:32.659Z,55.56
2018-03-31T16:09:00.322Z,55.25
2018-03-31T16:11:27.964Z,53.95
2018-03-31T16:13:56.579Z,53.33
2018-03-31T16:16:24.228Z,52.75
2018-03-31T16:18:51.860Z,53.01
2018-03-31T16:21:19.538Z,53.51
2018-03-31T16:23:47.189Z,54.88
2018-03-31T16:26:14.956Z,55.10
2018-03-31T16:28:42.599Z,56.00
2018-03-31T16:31:10.229Z,56.83
2018-03-31T16:33:37.942Z,57.55
2018-03-31T16:36:05.606Z,57.40
2018-03-31T16:38:33.317Z,56.95
2018-03-31T16:41:01.032Z,58.11
2018-03-31T16:43:28.694Z,58.35
2018-03-31T16:45:56.383Z,57.79
2018-03-31T16:48:24.126Z,58.10
2018-03-31T16:50:51.801Z,57.54
2018-03-31T16:53:19.477Z,57.02
2018-03-31T16:55:47.118Z,57.04
2018-03-31T16:58:14.773Z,57.40
2018-03-31T17:00:42.459Z,58.57
2018-03-31T17:03:10.149Z,59.36
2018-03-31T17:05:37.814Z,59.31
2018-03-31T17:08:05.630Z,58.60
2018-03-31T17:10:33.287Z,59.67
2018-03-31T17:13:01.473Z,59.50
2018-03-31T17:15:29.167Z,59.68
2018-03-31T17:17:56.897Z,59.82
2018-03-31T17:20:24.624Z,59.69
2018-03-31T17:22:52.336Z,59.90
2018-03-31T17:25:19.986Z,59.97
2018-03-31T17:27:47.657Z,60.41
2018-03-31T17:30:15.317Z,60.77
2018-03-31T17:32:42.985Z,60.76
2018-03-31T17:35:10.630Z,60.94
2018-03-31T17:37:38.277Z,61.12
2018-03-31T17:40:06.010Z,61.85
2018-03-31T17:42:33.701Z,61.36
2018-03-31T17:45:01.391Z,62.25
2018-03-31T17:47:29.029Z,60.28
2018-03-31T17:49:56.692Z,61.07
2018-03-31T17:52:24.475Z,61.84
2018-03-31T17:54:52.185Z,61.80
2018-03-31T17:57:19.835Z,61.64
2018-03-31T17:59:47.491Z,60.96
2018-03-31T18:02:15.220Z,60.08
2018-03-31T18:04:42.877Z,59.57
2018-03-31T18:07:10.556Z,60.56
2018-03-31T18:09:38.327Z,60.65
2018-03-31T18:12:05.965Z,60.68
2018-03-31T18:14:33.631Z,61.39
2018-03-31T18:17:01.305Z,61.36
2018-03-31T18:19:28.952Z,61.06
2018-03-31T18:21:56.661Z,60.96
2018-03-31T18:24:24.401Z,61.69
2018-03-31T18:26:52.150Z,61.62
2018-03-31T18:29:19.851Z,61.47
2018-03-31T18:31:47.490Z,61.56
2018-03-31T18:34:15.125Z,61.80
2018-03-31T18:36:42.813Z,61.74
2018-03-31T18:39:10.493Z,62.76
2018-03-31T18:41:38.186Z,62.61
2018-03-31T18:44:06.012Z,62.73
2018-03-31T18:46:33.649Z,62.98
2018-03-31T18:49:01.294Z,62.59
2018-03-31T18:51:29.060Z,62.62
2018-03-31T18:53:56.765Z,61.98
2018-03-31T18:56:24.423Z,62.57
2018-03-31T18:58:52.487Z,63.23
2018-03-31T19:01:20.161Z,63.66
2018-03-31T19:03:47.806Z,64.12
2018-03-31T19:06:15.498Z,64.35
2018-03-31T19:08:43.142Z,64.31
2018-03-31T19:11:10.919Z,64.60
2018-03-31T19:13:38.600Z,64.71
2018-03-31T19:16:06.277Z,64.90
2018-03-31T19:18:33.931Z,65.33
2018-03-31T19:21:01.611Z,65.13
2018-03-31T19:23:29.249Z,64.41
2018-03-31T19:25:56.890Z,65.83
2018-03-31T19:28:24.565Z,66.76
2018-03-31T19:30:52.217Z,66.31
2018-03-31T19:33:19.857Z,66.33
2018-03-31T19:35:53.093Z,66.98
2018-03-31T19:38:21.577Z,65.99
2018-03-31T19:40:49.287Z,66.39
2018-03-31T19:43:16.954Z,66.55
2018-03-31T19:45:44.589Z,66.83
2018-03-31T19:48:12.229Z,66.98
2018-03-31T19:50:39.872Z,66.65
2018-03-31T19:53:07.585Z,66.50
2018-03-31T19:55:35.300Z,66.89
2018-03-31T19:58:02.955Z,66.87
2018-03-31T20:00:30.621Z,67.14
2018-03-31T20:02:58.305Z,67.04
2018-03-31T20:05:25.995Z,66.52
2018-03-31T20:07:54.349Z,65.92
2018-03-31T20:10:22.049Z,66.00
2018-03-31T20:12:49.730Z,64.71
2018-03-31T20:15:17.385Z,62.66
2018-03-31T20:17:45.126Z,60.40
2018-03-31T20:20:12.838Z,58.55
2018-03-31T20:22:40.507Z,57.53
2018-03-31T20:25:08.267Z,57.73
2018-03-31T20:27:35.907Z,58.16
2018-03-31T20:30:03.553Z,57.97
2018-03-31T20:32:31.230Z,58.52
2018-03-31T20:34:58.930Z,59.27
2018-03-31T20:37:26.573Z,59.01
2018-03-31T20:39:54.480Z,58.94
2018-03-31T20:42:22.146Z,57.82
2018-03-31T20:44:49.978Z,57.58
2018-03-31T20:47:17.638Z,56.55
2018-03-31T20:49:45.267Z,56.94
2018-03-31T20:52:13.521Z,57.02
2018-03-31T20:54:41.250Z,57.72
2018-03-31T20:57:08.896Z,58.43
2018-03-31T20:59:36.592Z,59.06
2018-03-31T21:02:04.344Z,58.89
2018-03-31T21:04:31.981Z,58.84
2018-03-31T21:06:59.621Z,58.92
2018-03-31T21:09:27.267Z,58.72
2018-03-31T21:11:54.983Z,58.71
2018-03-31T21:14:22.685Z,57.99
2018-03-31T21:16:50.326Z,57.92
2018-03-31T21:19:18.085Z,58.23
2018-03-31T21:21:45.766Z,58.93
2018-03-31T21:24:13.404Z,59.43
2018-03-31T21:26:41.052Z,58.87
2018-03-31T21:29:08.736Z,58.58
2018-03-31T21:31:36.502Z,58.41
2018-03-31T21:34:04.784Z,58.92
2018-03-31T21:36:32.417Z,59.18
2018-03-31T21:39:00.066Z,59.68
2018-03-31T21:41:27.768Z,58.96
2018-03-31T21:43:55.397Z,59.31
2018-03-31T21:46:23.039Z,58.44
2018-03-31T21:48:50.707Z,58.53
2018-03-31T21:51:18.505Z,58.19
2018-03-31T21:53:46.185Z,58.19
2018-03-31T21:56:13.858Z,58.76
2018-03-31T21:58:41.494Z,60.19
2018-03-31T22:01:09.230Z,61.18
2018-03-31T22:03:36.893Z,60.35
2018-03-31T22:06:04.553Z,60.62
2018-03-31T22:08:32.339Z,60.19
2018-03-31T22:10:59.977Z,60.35
2018-03-31T22:16:32.166Z,59.70
2018-03-31T22:18:59.845Z,60.07
2018-03-31T22:21:27.640Z,59.23
2018-03-31T22:23:55.274Z,59.37
2018-03-31T22:26:22.941Z,59.56
2018-03-31T22:28:50.631Z,60.06
2018-03-31T22:31:18.323Z,60.33
2018-03-31T22:33:46.054Z,59.92
2018-03-31T22:36:13.695Z,60.49
2018-03-31T22:38:41.373Z,60.72
2018-03-31T22:41:09.073Z,59.95
2018-03-31T22:43:36.754Z,58.85
2018-03-31T22:46:04.426Z,58.22
2018-03-31T22:48:32.073Z,56.41
2018-03-31T22:50:59.734Z,55.92
2018-03-31T22:53:27.433Z,54.94
2018-03-31T22:55:55.097Z,55.52
2018-03-31T22:58:22.759Z,55.53
2018-03-31T23:00:50.435Z,55.44
2018-03-31T23:03:18.682Z,54.72
2018-03-31T23:05:46.989Z,54.96
2018-03-31T23:08:15.097Z,55.67
2018-03-31T23:10:43.412Z,56.14
2018-03-31T23:13:11.717Z,55.78
2018-03-31T23:15:39.993Z,55.76
2018-03-31T23:18:08.950Z,57.13
2018-03-31T23:20:37.134Z,57.82
2018-03-31T23:23:05.338Z,57.49
2018-03-31T23:25:33.458Z,57.88
2018-03-31T23:28:01.745Z,59.10
2018-03-31T23:30:29.993Z,60.04
2018-03-31T23:32:58.209Z,60.48
2018-03-31T23:35:26.430Z,60.36
2018-03-31T23:37:54.577Z,60.19
2018-03-31T23:40:22.357Z,61.62
2018-03-31T23:42:50.066Z,63.45
2018-03-31T23:45:17.785Z,65.05
2018-03-31T23:47:45.491Z,65.18
2018-03-31T23:50:13.221Z,66.02
2018-03-31T23:52:40.897Z,65.02
2018-03-31T23:55:08.610Z,66.80
2018-03-31T23:57:36.261Z,66.45
